Time;durP1;ratioP1;P1;durP2;ratioP2;P2;SDS_P1;SDS_P2;PMS_P1;PMS_P2;Temp;Humidity;BMP_temperature;BMP_pressure;BME280_temperature;BME280_humidity;BME280_pressure;Samples;Min_cycle;Max_cycle;Signal;HPM_P1;HPM_P2
2022/10/31 00:00:21;;;;;;;;;;;;;;;17.95;78.56;101725.34;1297684;22;687;-77
2022/10/31 00:01:11;;;;;;;;;;;;;;;17.93;78.44;101730.00;1297801;22;703;-77
2022/10/31 00:02:02;;;;;;;;;;;;;;;17.92;78.24;101733.66;1297746;22;653;-77
2022/10/31 00:02:52;;;;;;;;;;;;;;;17.94;78.39;101729.00;1297739;22;700;-77
2022/10/31 00:03:43;;;;;;;;;;;;;;;17.93;78.23;101738.94;1297635;22;668;-77
2022/10/31 00:04:33;;;;;;;;;;;;;;;17.93;78.54;101730.84;1297874;22;632;-77
2022/10/31 00:05:23;;;;;;;;;;;;;;;17.92;78.18;101741.75;1297505;22;601;-78
2022/10/31 00:06:14;;;;;;;;;;;;;;;17.92;79.02;101736.38;1297841;22;664;-78
2022/10/31 00:07:04;;;;;;;;;;;;;;;17.91;78.19;101735.53;1297200;22;676;-78
2022/10/31 00:07:55;;;;;;;;;;;;;;;17.91;77.88;101735.53;1297705;22;620;-79
2022/10/31 00:08:45;;;;;;;;;;;;;;;17.93;78.39;101735.38;1297877;22;635;-79
2022/10/31 00:09:36;;;;;;;;;;;;;;;17.92;78.11;101734.53;1297759;22;660;-79
2022/10/31 00:10:26;;;;;;;;;;;;;;;17.93;78.58;101738.09;1297777;22;707;-78
2022/10/31 00:11:16;;;;;;;;;;;;;;;17.93;78.30;101743.47;1297722;22;648;-78
2022/10/31 00:12:07;;;;;;;;;;;;;;;17.92;78.57;101739.06;1297820;22;621;-79
2022/10/31 00:12:57;;;;;;;;;;;;;;;17.93;78.14;101738.09;1297847;22;617;-78
2022/10/31 00:13:48;;;;;;;;;;;;;;;17.92;77.88;101736.38;1297655;22;577;-78
2022/10/31 00:14:38;;;;;;;;;;;;;;;17.91;77.79;101732.84;1297887;22;661;-78
2022/10/31 00:15:29;;;;;;;;;;;;;;;17.91;78.54;101734.69;1297655;22;652;-78
2022/10/31 00:16:19;;;;;;;;;;;;;;;17.91;78.49;101734.69;1297811;22;649;-77
2022/10/31 00:17:09;;;;;;;;;;;;;;;17.89;77.78;101739.34;1297663;22;656;-77
2022/10/31 00:18:00;;;;;;;;;;;;;;;17.91;79.00;101745.47;1297566;22;613;-77
2022/10/31 00:18:50;;;;;;;;;;;;;;;17.90;78.78;101741.06;1297886;22;537;-77
2022/10/31 00:19:41;;;;;;;;;;;;;;;17.89;78.53;101740.19;1297580;22;627;-78
2022/10/31 00:20:31;;;;;;;;;;;;;;;17.91;78.59;101740.06;1298000;22;688;-78
2022/10/31 00:21:21;;;;;;;;;;;;;;;17.91;78.55;101740.06;1297051;22;662;-78
2022/10/31 00:22:12;;;;;;;;;;;;;;;17.92;77.87;101739.06;1297776;22;664;-78
2022/10/31 00:23:02;;;;;;;;;;;;;;;17.92;78.02;101741.75;1297812;22;664;-78
2022/10/31 00:23:53;;;;;;;;;;;;;;;17.91;78.03;101746.31;1297795;22;599;-78
2022/10/31 00:24:43;;;;;;;;;;;;;;;17.90;77.79;101743.75;1297858;22;632;-78
2022/10/31 00:25:34;;;;;;;;;;;;;;;17.91;77.88;101745.47;1297757;22;612;-78
2022/10/31 00:26:24;;;;;;;;;;;;;;;17.89;78.07;101745.59;1297726;22;652;-79
2022/10/31 00:27:14;;;;;;;;;;;;;;;17.89;78.48;101742.03;1297711;22;660;-79
2022/10/31 00:28:05;;;;;;;;;;;;;;;17.89;78.29;101739.34;1297675;22;648;-79
2022/10/31 00:28:55;;;;;;;;;;;;;;;17.89;78.89;101742.03;1297855;22;617;-79
2022/10/31 00:29:46;;;;;;;;;;;;;;;17.89;77.79;101744.72;1297769;22;612;-79
2022/10/31 00:30:36;;;;;;;;;;;;;;;17.88;77.81;101748.41;1297830;22;629;-79
2022/10/31 00:31:27;;;;;;;;;;;;;;;17.89;77.74;101742.91;1297624;22;652;-79
2022/10/31 00:32:17;;;;;;;;;;;;;;;17.90;78.93;101741.06;1297731;22;617;-79
2022/10/31 00:33:07;;;;;;;;;;;;;;;17.90;78.07;101743.75;1297520;22;668;-80
2022/10/31 00:33:58;;;;;;;;;;;;;;;17.88;78.88;101743.88;1297556;22;629;-79
2022/10/31 00:34:48;;;;;;;;;;;;;;;17.88;78.57;101745.72;1297801;22;700;-79
2022/10/31 00:35:39;;;;;;;;;;;;;;;17.88;78.75;101745.72;1297536;22;669;-79
2022/10/31 00:36:29;;;;;;;;;;;;;;;17.87;78.73;101746.69;1297887;22;703;-80
2022/10/31 00:37:19;;;;;;;;;;;;;;;17.88;78.29;101751.09;1297712;22;601;-80
2022/10/31 00:38:10;;;;;;;;;;;;;;;17.88;78.23;101748.41;1297744;22;641;-78
2022/10/31 00:39:01;;;;;;;;;;;;;;;17.87;77.86;101749.38;1297749;22;645;-78
2022/10/31 00:39:51;;;;;;;;;;;;;;;17.87;78.53;101744.84;1297767;22;640;-78
2022/10/31 00:40:41;;;;;;;;;;;;;;;17.87;78.58;101744.00;1297629;22;1936;-81
2022/10/31 00:41:32;;;;;;;;;;;;;;;17.86;78.87;101745.84;1297660;22;569;-80
2022/10/31 00:42:22;;;;;;;;;;;;;;;17.89;78.24;101750.13;1297823;22;651;-77
2022/10/31 00:43:13;;;;;;;;;;;;;;;17.89;78.70;101748.28;1297647;22;668;-80
2022/10/31 00:44:03;;;;;;;;;;;;;;;17.90;77.90;101743.75;1297694;22;661;-79
2022/10/31 00:44:54;;;;;;;;;;;;;;;17.89;78.21;101744.72;1297558;22;711;-77
2022/10/31 00:45:44;;;;;;;;;;;;;;;17.89;78.67;101747.44;1297878;22;649;-77
2022/10/31 00:46:34;;;;;;;;;;;;;;;17.90;78.33;101741.06;1297473;22;621;-77
2022/10/31 00:47:25;;;;;;;;;;;;;;;17.88;78.14;101749.28;1297447;22;1063;-77
2022/10/31 00:48:15;;;;;;;;;;;;;;;17.89;78.43;101739.34;1297859;22;645;-77
2022/10/31 00:49:06;;;;;;;;;;;;;;;17.88;78.23;101741.19;1297564;22;649;-78
2022/10/31 00:49:56;;;;;;;;;;;;;;;17.89;78.46;101747.44;1297799;22;628;-78
2022/10/31 00:50:46;;;;;;;;;;;;;;;17.89;78.67;101742.03;1297659;22;649;-78
2022/10/31 00:51:37;;;;;;;;;;;;;;;17.89;78.91;101747.44;1297740;22;673;-78
2022/10/31 00:52:27;;;;;;;;;;;;;;;17.89;78.37;101751.00;1298582;22;668;-78
2022/10/31 00:53:18;;;;;;;;;;;;;;;17.90;77.85;101746.44;1298522;22;617;-78
2022/10/31 00:54:08;;;;;;;;;;;;;;;17.89;78.02;101742.03;1297748;22;688;-78
2022/10/31 00:54:59;;;;;;;;;;;;;;;17.88;78.24;101743.00;1297560;22;637;-77
2022/10/31 00:55:49;;;;;;;;;;;;;;;17.87;77.94;101744.00;1297768;22;637;-77
2022/10/31 00:56:39;;;;;;;;;;;;;;;17.88;78.02;101746.56;1297605;22;629;-77
2022/10/31 00:57:30;;;;;;;;;;;;;;;17.87;77.76;101747.56;1297663;22;669;-77
2022/10/31 00:58:20;;;;;;;;;;;;;;;17.88;78.21;101751.09;1297799;22;660;-78
2022/10/31 00:59:11;;;;;;;;;;;;;;;17.87;77.82;101752.94;1297678;22;617;-77
2022/10/31 01:00:01;;;;;;;;;;;;;;;17.86;78.15;101753.06;1297690;22;628;-77
2022/10/31 01:00:54;;;;;;;;;;;;;;;17.87;78.50;101752.94;1297502;22;1930;-77
2022/10/31 01:01:45;;;;;;;;;;;;;;;17.88;78.80;101753.81;1297576;22;652;-77
2022/10/31 01:02:35;;;;;;;;;;;;;;;17.86;77.90;101748.53;1297743;22;640;-77
2022/10/31 01:03:26;;;;;;;;;;;;;;;17.88;77.97;101753.81;1297461;22;624;-78
2022/10/31 01:04:16;;;;;;;;;;;;;;;17.88;77.98;101751.97;1297639;22;566;-78
2022/10/31 01:05:06;;;;;;;;;;;;;;;17.87;78.19;101755.66;1297083;22;609;-78
2022/10/31 01:05:57;;;;;;;;;;;;;;;17.87;77.78;101763.72;1297591;22;624;-78
2022/10/31 01:06:47;;;;;;;;;;;;;;;17.87;77.81;101752.09;1297752;22;691;-78
2022/10/31 01:07:38;;;;;;;;;;;;;;;17.89;78.16;101759.06;1297508;22;653;-78
2022/10/31 01:08:28;;;;;;;;;;;;;;;17.88;77.89;101761.91;1297765;22;660;-78
2022/10/31 01:09:19;;;;;;;;;;;;;;;17.87;77.46;101755.66;1297576;22;652;-78
2022/10/31 01:10:09;;;;;;;;;;;;;;;17.87;78.23;101752.94;1297471;22;652;-78
2022/10/31 01:10:59;;;;;;;;;;;;;;;17.86;78.47;101751.22;1297695;22;657;-78
2022/10/31 01:11:50;;;;;;;;;;;;;;;17.87;77.96;101754.78;1297664;22;609;-78
2022/10/31 01:12:40;;;;;;;;;;;;;;;17.86;78.10;101750.38;1297672;22;665;-78
2022/10/31 01:13:31;;;;;;;;;;;;;;;17.85;77.90;101756.75;1297655;22;625;-78
2022/10/31 01:14:21;;;;;;;;;;;;;;;17.87;78.04;101747.56;1297566;22;673;-78
2022/10/31 01:15:11;;;;;;;;;;;;;;;17.85;77.54;101751.34;1297693;22;520;-78
2022/10/31 01:16:02;;;;;;;;;;;;;;;17.86;78.84;101744.97;1297611;22;637;-78
2022/10/31 01:16:52;;;;;;;;;;;;;;;17.87;78.32;101746.69;1297900;22;609;-77
2022/10/31 01:17:43;;;;;;;;;;;;;;;17.88;78.18;101751.09;1297606;22;648;-77
2022/10/31 01:18:33;;;;;;;;;;;;;;;17.88;78.61;101748.41;1297686;22;707;-78
2022/10/31 01:19:24;;;;;;;;;;;;;;;17.88;78.43;101749.28;1297002;22;625;-78
2022/10/31 01:20:14;;;;;;;;;;;;;;;17.87;78.47;101755.66;1297536;22;632;-79
2022/10/31 01:21:04;;;;;;;;;;;;;;;17.86;78.36;101751.22;1297586;22;1919;-78
2022/10/31 01:21:55;;;;;;;;;;;;;;;17.86;77.93;101750.38;1297587;22;617;-78
2022/10/31 01:22:45;;;;;;;;;;;;;;;17.86;78.70;101747.66;1297625;22;679;-78
2022/10/31 01:23:36;;;;;;;;;;;;;;;17.85;78.33;101744.13;1297579;22;688;-78
2022/10/31 01:24:26;;;;;;;;;;;;;;;17.87;78.52;101738.59;1297735;22;680;-78
2022/10/31 01:25:17;;;;;;;;;;;;;;;17.87;78.01;101741.31;1297508;22;661;-78
2022/10/31 01:26:07;;;;;;;;;;;;;;;17.86;77.90;101743.13;1297552;22;605;-78
2022/10/31 01:26:57;;;;;;;;;;;;;;;17.86;77.79;101743.13;1297506;22;668;-77
2022/10/31 01:27:48;;;;;;;;;;;;;;;17.85;78.21;101740.56;1297634;22;664;-77
2022/10/31 01:28:38;;;;;;;;;;;;;;;17.85;77.81;101735.16;1297732;22;729;-77
2022/10/31 01:29:29;;;;;;;;;;;;;;;17.84;78.11;101739.72;1297657;22;641;-77
2022/10/31 01:30:19;;;;;;;;;;;;;;;17.84;77.74;101731.63;1297708;22;618;-77
2022/10/31 01:31:10;;;;;;;;;;;;;;;17.84;78.62;101738.84;1297353;22;731;-77
2022/10/31 01:32:00;;;;;;;;;;;;;;;17.82;78.76;101728.19;1297596;22;605;-77
2022/10/31 01:32:50;;;;;;;;;;;;;;;17.83;78.09;101731.75;1297693;22;577;-77
2022/10/31 01:33:41;;;;;;;;;;;;;;;17.84;78.42;101730.75;1298470;22;652;-77
2022/10/31 01:34:31;;;;;;;;;;;;;;;17.82;78.39;101719.25;1297671;22;617;-78
2022/10/31 01:35:22;;;;;;;;;;;;;;;17.84;77.83;101723.53;1297509;22;645;-77
2022/10/31 01:36:12;;;;;;;;;;;;;;;17.85;77.98;101724.38;1297519;22;660;-78
2022/10/31 01:37:02;;;;;;;;;;;;;;;17.84;78.03;101719.97;1298540;22;632;-77
2022/10/31 01:37:53;;;;;;;;;;;;;;;17.84;77.86;101719.97;1297644;22;625;-78
2022/10/31 01:38:43;;;;;;;;;;;;;;;17.83;78.15;101719.13;1297615;22;793;-77
2022/10/31 01:39:34;;;;;;;;;;;;;;;17.82;78.21;101716.53;1297478;22;664;-77
2022/10/31 01:40:24;;;;;;;;;;;;;;;17.82;77.93;101716.53;1297575;22;625;-78
2022/10/31 01:41:15;;;;;;;;;;;;;;;17.82;77.44;101724.63;1297342;22;676;-77
2022/10/31 01:42:05;;;;;;;;;;;;;;;17.83;77.56;101720.94;1297258;22;668;-78
2022/10/31 01:42:56;;;;;;;;;;;;;;;17.83;78.41;101720.94;1296026;22;657;-77
2022/10/31 01:43:46;;;;;;;;;;;;;;;17.85;78.13;101727.09;1296619;22;664;-77
2022/10/31 01:44:36;;;;;;;;;;;;;;;17.84;78.13;101720.84;1297567;22;715;-78
2022/10/31 01:45:27;;;;;;;;;;;;;;;17.83;78.05;101720.94;1297551;22;637;-78
2022/10/31 01:46:17;;;;;;;;;;;;;;;17.82;77.79;101724.63;1297594;22;699;-79
2022/10/31 01:47:08;;;;;;;;;;;;;;;17.80;77.97;101710.41;1297448;22;633;-79
2022/10/31 01:47:58;;;;;;;;;;;;;;;17.80;78.15;101707.72;1297512;22;653;-78
2022/10/31 01:48:48;;;;;;;;;;;;;;;17.80;78.45;101708.56;1297621;22;629;-78
2022/10/31 01:49:39;;;;;;;;;;;;;;;17.83;77.93;101720.94;1297554;22;644;-78
2022/10/31 01:50:29;;;;;;;;;;;;;;;17.83;78.33;101718.25;1297666;22;624;-78
2022/10/31 01:51:20;;;;;;;;;;;;;;;17.83;77.90;101720.94;1297470;22;751;-77
2022/10/31 01:52:10;;;;;;;;;;;;;;;17.82;77.85;101719.25;1297640;22;675;-77
2022/10/31 01:53:01;;;;;;;;;;;;;;;17.81;77.87;101718.38;1297404;22;668;-77
2022/10/31 01:53:51;;;;;;;;;;;;;;;17.81;78.23;101717.53;1297467;22;636;-77
2022/10/31 01:54:41;;;;;;;;;;;;;;;17.82;77.87;101719.25;1297715;22;656;-77
2022/10/31 01:55:32;;;;;;;;;;;;;;;17.81;77.93;101717.53;1297534;22;624;-78
2022/10/31 01:56:22;;;;;;;;;;;;;;;17.81;77.43;101715.69;1297605;22;644;-79
2022/10/31 01:57:13;;;;;;;;;;;;;;;17.80;77.93;101713.97;1297381;22;723;-79
2022/10/31 01:58:03;;;;;;;;;;;;;;;17.80;77.75;101713.97;1297474;22;647;-79
2022/10/31 01:58:53;;;;;;;;;;;;;;;17.80;77.65;101719.34;1297684;22;700;-79
2022/10/31 01:59:44;;;;;;;;;;;;;;;17.80;78.39;101710.41;1297529;22;648;-78
2022/10/31 02:00:34;;;;;;;;;;;;;;;17.79;77.95;101714.09;1297804;22;644;-78
2022/10/31 02:01:25;;;;;;;;;;;;;;;17.80;78.29;101713.09;1297392;22;677;-78
2022/10/31 02:02:15;;;;;;;;;;;;;;;17.80;77.26;101707.72;1297674;22;668;-78
2022/10/31 02:03:06;;;;;;;;;;;;;;;17.80;77.79;101718.50;1296866;22;750;-78
2022/10/31 02:03:56;;;;;;;;;;;;;;;17.77;77.64;101719.59;1297532;22;632;-78
2022/10/31 02:04:46;;;;;;;;;;;;;;;17.77;77.80;101710.66;1297273;22;675;-78
2022/10/31 02:05:37;;;;;;;;;;;;;;;17.77;78.02;101713.34;1296300;22;652;-78
2022/10/31 02:06:27;;;;;;;;;;;;;;;17.77;78.35;101699.88;1296771;22;490;-78
2022/10/31 02:07:18;;;;;;;;;;;;;;;17.78;77.60;101712.38;1297453;22;641;-77
2022/10/31 02:08:08;;;;;;;;;;;;;;;17.79;77.53;101714.94;1297468;22;664;-79
2022/10/31 02:08:59;;;;;;;;;;;;;;;17.79;78.12;101714.09;1297669;22;624;-79
2022/10/31 02:09:49;;;;;;;;;;;;;;;17.78;78.03;101724.00;1297407;22;629;-79
2022/10/31 02:10:39;;;;;;;;;;;;;;;17.78;78.11;101715.06;1297679;22;664;-79
2022/10/31 02:11:30;;;;;;;;;;;;;;;17.78;78.08;101720.47;1297435;22;605;-78
2022/10/31 02:12:20;;;;;;;;;;;;;;;17.78;77.38;101712.38;1297486;22;707;-78
2022/10/31 02:13:12;;;;;;;;;;;;;;;17.76;77.62;101719.72;1297483;22;625;-79
2022/10/31 02:14:03;;;;;;;;;;;;;;;17.76;77.39;101720.59;1297404;22;656;-79
2022/10/31 02:14:53;;;;;;;;;;;;;;;17.76;78.19;101717.88;1297456;22;640;-78
2022/10/31 02:15:43;;;;;;;;;;;;;;;17.77;78.34;101714.22;1297584;22;722;-79
2022/10/31 02:16:34;;;;;;;;;;;;;;;17.76;77.94;101712.50;1297422;22;636;-79
2022/10/31 02:17:24;;;;;;;;;;;;;;;17.75;77.87;101707.22;1296976;22;684;-78
2022/10/31 02:18:15;;;;;;;;;;;;;;;17.75;77.79;101709.91;1297416;22;601;-79
2022/10/31 02:19:05;;;;;;;;;;;;;;;17.75;77.56;101712.63;1297451;22;640;-78
2022/10/31 02:19:55;;;;;;;;;;;;;;;17.74;77.59;101716.28;1297570;22;633;-79
2022/10/31 02:20:46;;;;;;;;;;;;;;;17.75;77.64;101715.31;1297378;22;1884;-78
2022/10/31 02:21:36;;;;;;;;;;;;;;;17.75;77.78;101716.16;1297777;22;629;-79
2022/10/31 02:22:27;;;;;;;;;;;;;;;17.76;77.90;101714.34;1297399;22;636;-77
2022/10/31 02:23:17;;;;;;;;;;;;;;;17.75;77.41;101724.25;1297454;22;662;-78
2022/10/31 02:24:08;;;;;;;;;;;;;;;17.75;77.42;101716.16;1297429;22;589;-78
2022/10/31 02:24:58;;;;;;;;;;;;;;;17.76;77.46;101715.19;1297357;22;648;-78
2022/10/31 02:25:48;;;;;;;;;;;;;;;17.74;77.57;101717.16;1297620;22;627;-78
2022/10/31 02:26:39;;;;;;;;;;;;;;;17.75;78.00;101712.63;1297510;22;533;-78
2022/10/31 02:27:29;;;;;;;;;;;;;;;17.76;77.11;101714.34;1297463;22;629;-78
2022/10/31 02:28:20;;;;;;;;;;;;;;;17.75;77.38;101718.00;1297445;22;629;-78
2022/10/31 02:29:10;;;;;;;;;;;;;;;17.74;77.40;101710.91;1297461;22;609;-79
2022/10/31 02:30:01;;;;;;;;;;;;;;;17.73;77.01;101703.81;1297590;22;680;-78
2022/10/31 02:30:51;;;;;;;;;;;;;;;17.73;77.93;101712.78;1297296;22;660;-78
2022/10/31 02:31:41;;;;;;;;;;;;;;;17.72;77.88;101702.09;1297663;22;625;-78
2022/10/31 02:32:32;;;;;;;;;;;;;;;17.73;77.32;101710.06;1297316;22;641;-78
2022/10/31 02:33:22;;;;;;;;;;;;;;;17.72;77.18;101708.34;1297499;22;648;-78
2022/10/31 02:34:13;;;;;;;;;;;;;;;17.71;78.04;101708.47;1298448;22;829;-78
2022/10/31 02:35:03;;;;;;;;;;;;;;;17.71;77.18;101712.03;1297430;22;684;-78
2022/10/31 02:35:53;;;;;;;;;;;;;;;17.72;77.62;101712.91;1297560;22;712;-78
2022/10/31 02:36:44;;;;;;;;;;;;;;;17.71;78.06;101706.66;1297441;22;641;-78
2022/10/31 02:37:34;;;;;;;;;;;;;;;17.72;77.35;101710.19;1297505;22;672;-78
2022/10/31 02:38:25;;;;;;;;;;;;;;;17.74;76.97;101710.91;1297415;22;636;-78
2022/10/31 02:39:15;;;;;;;;;;;;;;;17.73;77.31;101709.22;1297490;22;672;-78
2022/10/31 02:40:06;;;;;;;;;;;;;;;17.73;77.88;101712.78;1297586;22;648;-78
2022/10/31 02:40:56;;;;;;;;;;;;;;;17.74;77.12;101711.75;1297376;22;1856;-78
2022/10/31 02:41:46;;;;;;;;;;;;;;;17.74;77.99;101717.16;1297474;22;672;-78
2022/10/31 02:42:37;;;;;;;;;;;;;;;17.74;77.64;101713.59;1297389;22;644;-78
2022/10/31 02:43:27;;;;;;;;;;;;;;;17.74;77.28;101710.91;1297453;22;649;-78
2022/10/31 02:44:18;;;;;;;;;;;;;;;17.73;77.12;101710.06;1297337;22;667;-78
2022/10/31 02:45:08;;;;;;;;;;;;;;;17.73;76.96;101714.63;1297414;22;622;-78
2022/10/31 02:45:58;;;;;;;;;;;;;;;17.73;77.32;101714.63;1297207;22;887;-77
2022/10/31 02:46:49;;;;;;;;;;;;;;;17.72;77.10;101713.75;1297406;22;625;-78
2022/10/31 02:47:39;;;;;;;;;;;;;;;17.72;77.15;101712.91;1297256;22;1228;-78
2022/10/31 02:48:30;;;;;;;;;;;;;;;17.71;77.61;101717.44;1297362;22;653;-77
2022/10/31 02:49:20;;;;;;;;;;;;;;;17.69;77.21;101709.47;1297580;22;613;-78
2022/10/31 02:50:11;;;;;;;;;;;;;;;17.72;77.39;101711.06;1297425;22;633;-77
2022/10/31 02:51:01;;;;;;;;;;;;;;;17.72;77.04;101708.34;1297281;22;649;-77
2022/10/31 02:51:51;;;;;;;;;;;;;;;17.73;77.81;101717.31;1297566;22;617;-77
2022/10/31 02:52:42;;;;;;;;;;;;;;;17.72;77.15;101715.59;1297425;22;671;-78
2022/10/31 02:53:32;;;;;;;;;;;;;;;17.73;77.09;101717.31;1297413;22;648;-78
2022/10/31 02:54:23;;;;;;;;;;;;;;;17.71;77.40;101714.72;1297373;22;648;-78
2022/10/31 02:55:13;;;;;;;;;;;;;;;17.71;77.26;101712.03;1297412;22;621;-78
2022/10/31 02:56:03;;;;;;;;;;;;;;;17.73;77.31;101717.31;1297533;22;675;-78
2022/10/31 02:56:54;;;;;;;;;;;;;;;17.71;77.32;101708.47;1297370;22;657;-78
2022/10/31 02:57:44;;;;;;;;;;;;;;;17.71;77.60;101712.03;1297983;22;625;-78
2022/10/31 02:58:35;;;;;;;;;;;;;;;17.73;77.82;101718.16;1297792;22;804;-78
2022/10/31 02:59:25;;;;;;;;;;;;;;;17.74;77.49;101721.69;1297842;22;639;-78
2022/10/31 03:00:16;;;;;;;;;;;;;;;17.72;76.87;101707.50;1298100;22;656;-78
2022/10/31 03:01:06;;;;;;;;;;;;;;;17.73;77.06;101711.91;1297048;22;1928;-78
2022/10/31 03:01:57;;;;;;;;;;;;;;;17.70;77.44;101715.72;1298068;22;731;-79
2022/10/31 03:02:47;;;;;;;;;;;;;;;17.71;77.97;101714.72;1296947;22;628;-78
2022/10/31 03:03:38;;;;;;;;;;;;;;;17.71;77.49;101717.44;1297985;22;613;-79
2022/10/31 03:04:28;;;;;;;;;;;;;;;17.72;77.51;101707.50;1297916;22;638;-79
2022/10/31 03:05:18;;;;;;;;;;;;;;;17.71;77.07;101708.47;1298102;22;613;-79
2022/10/31 03:06:09;;;;;;;;;;;;;;;17.71;76.90;101711.19;1297774;22;652;-78
2022/10/31 03:07:00;;;;;;;;;;;;;;;17.72;76.98;101712.91;1297943;22;617;-79
2022/10/31 03:07:50;;;;;;;;;;;;;;;17.68;77.79;101707.75;1297897;22;648;-79
2022/10/31 03:08:40;;;;;;;;;;;;;;;17.69;77.52;101708.59;1298012;22;1036;-79
2022/10/31 03:09:31;;;;;;;;;;;;;;;17.71;77.13;101711.19;1297981;22;629;-79
2022/10/31 03:10:21;;;;;;;;;;;;;;;17.69;77.56;101714.84;1297977;22;699;-79
2022/10/31 03:11:12;;;;;;;;;;;;;;;17.69;77.70;101714.00;1297843;22;622;-78
2022/10/31 03:12:02;;;;;;;;;;;;;;;17.69;76.78;101706.75;1297909;22;613;-79
2022/10/31 03:12:52;;;;;;;;;;;;;;;17.68;77.40;101713.13;1298012;22;606;-79
2022/10/31 03:13:43;;;;;;;;;;;;;;;17.69;77.49;101708.59;1297890;22;637;-77
2022/10/31 03:14:33;;;;;;;;;;;;;;;17.69;76.99;101706.75;1297893;22;723;-79
2022/10/31 03:15:24;;;;;;;;;;;;;;;17.69;77.84;101714.84;1297239;22;968;-78
2022/10/31 03:16:14;;;;;;;;;;;;;;;17.71;76.89;101712.03;1297848;22;660;-79
2022/10/31 03:17:05;;;;;;;;;;;;;;;17.68;76.83;101713.13;1298005;22;772;-79
2022/10/31 03:17:55;;;;;;;;;;;;;;;17.70;77.30;101715.72;1297828;22;621;-78
2022/10/31 03:18:45;;;;;;;;;;;;;;;17.68;77.23;101713.13;1298007;22;668;-79
2022/10/31 03:19:36;;;;;;;;;;;;;;;17.69;77.59;101714.84;1297714;22;621;-79
2022/10/31 03:20:26;;;;;;;;;;;;;;;17.68;77.72;101718.53;1297827;22;637;-78
2022/10/31 03:21:17;;;;;;;;;;;;;;;17.71;77.17;101716.56;1297962;22;1926;-79
2022/10/31 03:22:07;;;;;;;;;;;;;;;17.68;76.93;101713.13;1297692;22;629;-78
2022/10/31 03:22:57;;;;;;;;;;;;;;;17.70;77.57;101721.09;1297921;22;668;-77
2022/10/31 03:23:48;;;;;;;;;;;;;;;17.68;76.79;101723.91;1297625;22;677;-78
2022/10/31 03:24:38;;;;;;;;;;;;;;;17.68;77.17;101720.38;1297701;22;645;-78
2022/10/31 03:25:29;;;;;;;;;;;;;;;17.68;77.70;101718.53;1297932;22;688;-78
2022/10/31 03:26:19;;;;;;;;;;;;;;;17.67;76.95;101716.81;1297836;22;617;-76
2022/10/31 03:27:09;;;;;;;;;;;;;;;17.67;77.57;101722.19;1297871;22;661;-77
2022/10/31 03:28:00;;;;;;;;;;;;;;;17.67;76.92;101714.13;1297737;22;648;-77
2022/10/31 03:28:50;;;;;;;;;;;;;;;17.68;77.71;101723.06;1297866;22;613;-77
2022/10/31 03:29:41;;;;;;;;;;;;;;;17.65;77.70;101721.47;1297783;22;668;-77
2022/10/31 03:30:31;;;;;;;;;;;;;;;17.66;76.78;101715.09;1297945;22;628;-77
2022/10/31 03:31:22;;;;;;;;;;;;;;;17.69;76.89;101724.78;1297969;22;732;-77
2022/10/31 03:32:12;;;;;;;;;;;;;;;17.67;77.05;101718.66;1297839;22;614;-78
2022/10/31 03:33:02;;;;;;;;;;;;;;;17.67;77.35;101715.94;1297720;22;684;-78
2022/10/31 03:33:53;;;;;;;;;;;;;;;17.66;77.25;101717.78;1297765;22;720;-77
2022/10/31 03:34:43;;;;;;;;;;;;;;;17.67;77.32;101722.19;1297798;22;687;-78
2022/10/31 03:35:34;;;;;;;;;;;;;;;17.68;76.94;101723.91;1297757;22;795;-78
2022/10/31 03:36:24;;;;;;;;;;;;;;;17.68;77.44;101723.06;1297927;22;637;-78
2022/10/31 03:37:15;;;;;;;;;;;;;;;17.67;76.53;101719.50;1297832;22;696;-77
2022/10/31 03:38:05;;;;;;;;;;;;;;;17.67;77.29;101716.81;1297685;22;606;-77
2022/10/31 03:38:56;;;;;;;;;;;;;;;17.67;76.68;101716.81;1298016;22;617;-77
2022/10/31 03:39:46;;;;;;;;;;;;;;;17.66;77.44;101715.09;1297753;22;566;-77
2022/10/31 03:40:36;;;;;;;;;;;;;;;17.67;77.02;101716.81;1297906;22;707;-77
2022/10/31 03:41:27;;;;;;;;;;;;;;;17.65;76.91;101724.16;1297677;22;617;-76
2022/10/31 03:42:17;;;;;;;;;;;;;;;17.65;76.89;101721.47;1297872;22;648;-76
2022/10/31 03:43:08;;;;;;;;;;;;;;;17.66;77.18;101720.50;1297657;22;660;-77
2022/10/31 03:43:59;;;;;;;;;;;;;;;17.66;76.39;101728.56;1297915;22;656;-77
2022/10/31 03:44:49;;;;;;;;;;;;;;;17.66;76.95;101727.72;1297734;22;613;-75
2022/10/31 03:45:39;;;;;;;;;;;;;;;17.66;77.17;101725.03;1297974;22;684;-77
2022/10/31 03:46:30;;;;;;;;;;;;;;;17.66;77.52;101728.56;1298711;22;699;-76
2022/10/31 03:47:20;;;;;;;;;;;;;;;17.63;77.19;101726.09;1297625;22;1103;-77
2022/10/31 03:48:11;;;;;;;;;;;;;;;17.64;77.20;101733.22;1297268;22;613;-76
2022/10/31 03:49:01;;;;;;;;;;;;;;;17.66;76.49;101733.97;1296532;22;664;-76
2022/10/31 03:49:52;;;;;;;;;;;;;;;17.66;76.39;101731.28;1297154;22;644;-76
2022/10/31 03:50:42;;;;;;;;;;;;;;;17.65;77.30;101728.69;1297759;22;651;-76
2022/10/31 03:51:32;;;;;;;;;;;;;;;17.64;77.36;101726.97;1297860;22;672;-76
2022/10/31 03:52:23;;;;;;;;;;;;;;;17.63;76.38;101728.78;1297729;22;711;-76
2022/10/31 03:53:13;;;;;;;;;;;;;;;17.64;76.55;101726.97;1297683;22;657;-76
2022/10/31 03:54:04;;;;;;;;;;;;;;;17.64;76.23;101729.66;1297844;22;648;-76
2022/10/31 03:54:54;;;;;;;;;;;;;;;17.61;76.63;101733.44;1297746;22;656;-77
2022/10/31 03:55:44;;;;;;;;;;;;;;;17.60;77.32;101729.03;1297742;22;684;-76
2022/10/31 03:56:35;;;;;;;;;;;;;;;17.60;77.03;101729.03;1297693;22;644;-76
2022/10/31 03:57:25;;;;;;;;;;;;;;;17.62;76.35;101734.28;1297805;22;624;-76
2022/10/31 03:58:16;;;;;;;;;;;;;;;17.63;77.22;101733.31;1297586;22;589;-77
2022/10/31 03:59:06;;;;;;;;;;;;;;;17.62;76.40;101734.28;1297176;22;628;-77
2022/10/31 03:59:57;;;;;;;;;;;;;;;17.61;77.31;101738.81;1297908;22;609;-77
2022/10/31 04:00:47;;;;;;;;;;;;;;;17.61;76.23;101735.28;1297551;22;628;-78
2022/10/31 04:01:37;;;;;;;;;;;;;;;17.61;76.64;101735.28;1297730;22;621;-76
2022/10/31 04:02:28;;;;;;;;;;;;;;;17.62;77.12;101734.28;1297665;22;856;-76
2022/10/31 04:03:18;;;;;;;;;;;;;;;17.62;76.72;101723.50;1297841;22;767;-77
2022/10/31 04:04:09;;;;;;;;;;;;;;;17.62;76.85;101734.28;1297856;22;621;-76
2022/10/31 04:04:59;;;;;;;;;;;;;;;17.63;77.19;101730.63;1297704;22;617;-76
2022/10/31 04:05:49;;;;;;;;;;;;;;;17.61;77.16;101733.44;1297792;22;684;-76
2022/10/31 04:06:40;;;;;;;;;;;;;;;17.59;76.48;101723.75;1297744;22;609;-77
2022/10/31 04:07:30;;;;;;;;;;;;;;;17.59;77.08;101730.00;1297817;22;633;-76
2022/10/31 04:08:21;;;;;;;;;;;;;;;17.59;76.32;101729.16;1297721;22;676;-77
2022/10/31 04:09:11;;;;;;;;;;;;;;;17.60;76.74;101730.88;1297772;22;644;-77
2022/10/31 04:10:02;;;;;;;;;;;;;;;17.59;76.72;101730.00;1297783;22;692;-77
2022/10/31 04:10:52;;;;;;;;;;;;;;;17.60;77.10;101736.25;1297730;22;605;-77
2022/10/31 04:11:42;;;;;;;;;;;;;;;17.63;76.86;101731.47;1297895;22;656;-77
2022/10/31 04:12:33;;;;;;;;;;;;;;;17.61;77.06;101732.56;1297673;22;629;-77
2022/10/31 04:13:23;;;;;;;;;;;;;;;17.61;76.67;101730.75;1297177;22;671;-77
2022/10/31 04:14:14;;;;;;;;;;;;;;;17.60;77.17;101731.72;1297943;22;625;-76
2022/10/31 04:15:04;;;;;;;;;;;;;;;17.60;76.50;101726.31;1297608;22;644;-76
2022/10/31 04:15:54;;;;;;;;;;;;;;;17.60;76.13;101730.88;1297773;22;688;-77
2022/10/31 04:16:45;;;;;;;;;;;;;;;17.60;76.89;101726.31;1297645;22;624;-76
2022/10/31 04:17:35;;;;;;;;;;;;;;;17.58;76.44;101730.97;1297822;22;629;-76
2022/10/31 04:18:26;;;;;;;;;;;;;;;17.58;76.24;101722.91;1297733;22;640;-76
2022/10/31 04:19:16;;;;;;;;;;;;;;;17.57;76.20;101729.25;1297689;22;648;-76
2022/10/31 04:20:07;;;;;;;;;;;;;;;17.57;76.66;101721.19;1297927;22;691;-77
2022/10/31 04:20:57;;;;;;;;;;;;;;;17.58;76.24;101720.19;1297735;22;1888;-77
2022/10/31 04:21:47;;;;;;;;;;;;;;;17.57;76.77;101726.56;1297746;22;746;-76
2022/10/31 04:22:38;;;;;;;;;;;;;;;17.55;76.22;101723.16;1297774;22;656;-77
2022/10/31 04:23:28;;;;;;;;;;;;;;;17.56;76.56;101719.47;1297808;22;929;-77
2022/10/31 04:24:19;;;;;;;;;;;;;;;17.59;76.81;101716.53;1297891;22;688;-77
2022/10/31 04:25:09;;;;;;;;;;;;;;;17.58;76.29;101717.50;1297579;22;680;-76
2022/10/31 04:26:00;;;;;;;;;;;;;;;17.58;76.06;101713.94;1297781;22;613;-77